sensor_id;sensor_type;location;lat;lon;timestamp;P1;durP1;ratioP1;P2;durP2;ratioP2
23802;SDS011;12082;51.786;6.018;2023-04-29T00:00:25;129.63;;;63.10;;
23802;SDS011;12082;51.786;6.018;2023-04-29T00:02:51;123.83;;;62.80;;
23802;SDS011;12082;51.786;6.018;2023-04-29T00:05:17;123.20;;;60.93;;
23802;SDS011;12082;51.786;6.018;2023-04-29T00:07:42;130.13;;;59.87;;
23802;SDS011;12082;51.786;6.018;2023-04-29T00:10:08;129.33;;;59.57;;
23802;SDS011;12082;51.786;6.018;2023-04-29T00:12:36;125.57;;;62.93;;
23802;SDS011;12082;51.786;6.018;2023-04-29T00:15:01;125.33;;;60.93;;
23802;SDS011;12082;51.786;6.018;2023-04-29T00:17:28;119.93;;;59.47;;
23802;SDS011;12082;51.786;6.018;2023-04-29T00:19:54;122.03;;;59.53;;
23802;SDS011;12082;51.786;6.018;2023-04-29T00:22:19;103.77;;;57.97;;
23802;SDS011;12082;51.786;6.018;2023-04-29T00:24:46;110.90;;;58.17;;
23802;SDS011;12082;51.786;6.018;2023-04-29T00:27:12;120.03;;;60.70;;
23802;SDS011;12082;51.786;6.018;2023-04-29T00:29:37;118.33;;;60.73;;
23802;SDS011;12082;51.786;6.018;2023-04-29T00:32:03;105.40;;;60.23;;
23802;SDS011;12082;51.786;6.018;2023-04-29T00:34:29;117.50;;;61.00;;
23802;SDS011;12082;51.786;6.018;2023-04-29T00:36:54;106.07;;;61.57;;
23802;SDS011;12082;51.786;6.018;2023-04-29T00:39:20;100.63;;;55.70;;
23802;SDS011;12082;51.786;6.018;2023-04-29T00:41:46;117.07;;;59.80;;
23802;SDS011;12082;51.786;6.018;2023-04-29T00:44:11;111.77;;;57.30;;
23802;SDS011;12082;51.786;6.018;2023-04-29T00:46:37;109.03;;;58.23;;
23802;SDS011;12082;51.786;6.018;2023-04-29T00:49:02;111.57;;;58.70;;
23802;SDS011;12082;51.786;6.018;2023-04-29T00:51:28;106.70;;;57.47;;
23802;SDS011;12082;51.786;6.018;2023-04-29T00:53:54;106.90;;;58.50;;
23802;SDS011;12082;51.786;6.018;2023-04-29T00:56:20;110.87;;;61.00;;
23802;SDS011;12082;51.786;6.018;2023-04-29T00:58:46;110.43;;;59.23;;
23802;SDS011;12082;51.786;6.018;2023-04-29T01:01:17;108.57;;;63.50;;
23802;SDS011;12082;51.786;6.018;2023-04-29T01:03:44;103.07;;;59.30;;
23802;SDS011;12082;51.786;6.018;2023-04-29T01:06:28;96.33;;;58.50;;
23802;SDS011;12082;51.786;6.018;2023-04-29T01:14:27;102.63;;;60.33;;
23802;SDS011;12082;51.786;6.018;2023-04-29T01:16:58;115.13;;;58.03;;
23802;SDS011;12082;51.786;6.018;2023-04-29T01:21:56;101.10;;;56.27;;
23802;SDS011;12082;51.786;6.018;2023-04-29T01:24:22;98.37;;;55.53;;
23802;SDS011;12082;51.786;6.018;2023-04-29T01:26:53;98.77;;;53.63;;
23802;SDS011;12082;51.786;6.018;2023-04-29T01:29:25;107.10;;;54.83;;
23802;SDS011;12082;51.786;6.018;2023-04-29T01:32:12;103.90;;;56.10;;
23802;SDS011;12082;51.786;6.018;2023-04-29T01:34:51;91.23;;;52.77;;
23802;SDS011;12082;51.786;6.018;2023-04-29T01:37:32;101.47;;;53.17;;
23802;SDS011;12082;51.786;6.018;2023-04-29T01:45:04;94.67;;;52.00;;
23802;SDS011;12082;51.786;6.018;2023-04-29T01:47:32;89.73;;;52.03;;
23802;SDS011;12082;51.786;6.018;2023-04-29T01:49:58;89.83;;;53.47;;
23802;SDS011;12082;51.786;6.018;2023-04-29T01:52:24;91.30;;;52.07;;
23802;SDS011;12082;51.786;6.018;2023-04-29T01:54:50;93.87;;;54.07;;
23802;SDS011;12082;51.786;6.018;2023-04-29T01:57:15;90.57;;;50.67;;
23802;SDS011;12082;51.786;6.018;2023-04-29T01:59:41;91.47;;;52.47;;
23802;SDS011;12082;51.786;6.018;2023-04-29T02:02:06;88.73;;;52.13;;
23802;SDS011;12082;51.786;6.018;2023-04-29T02:04:34;82.53;;;51.83;;
23802;SDS011;12082;51.786;6.018;2023-04-29T02:06:59;84.73;;;51.43;;
23802;SDS011;12082;51.786;6.018;2023-04-29T02:09:25;99.03;;;49.67;;
23802;SDS011;12082;51.786;6.018;2023-04-29T02:11:51;83.23;;;50.43;;
23802;SDS011;12082;51.786;6.018;2023-04-29T02:14:17;81.40;;;47.30;;
23802;SDS011;12082;51.786;6.018;2023-04-29T02:16:43;81.83;;;50.27;;
23802;SDS011;12082;51.786;6.018;2023-04-29T02:19:09;78.60;;;48.17;;
23802;SDS011;12082;51.786;6.018;2023-04-29T02:21:35;78.67;;;46.27;;
23802;SDS011;12082;51.786;6.018;2023-04-29T02:24:01;82.87;;;47.17;;
23802;SDS011;12082;51.786;6.018;2023-04-29T02:26:26;82.47;;;47.93;;
23802;SDS011;12082;51.786;6.018;2023-04-29T02:28:52;81.53;;;49.97;;
23802;SDS011;12082;51.786;6.018;2023-04-29T02:31:18;86.13;;;50.07;;
23802;SDS011;12082;51.786;6.018;2023-04-29T02:33:43;87.40;;;49.73;;
23802;SDS011;12082;51.786;6.018;2023-04-29T02:36:09;90.37;;;49.80;;
23802;SDS011;12082;51.786;6.018;2023-04-29T02:38:34;90.27;;;50.60;;
23802;SDS011;12082;51.786;6.018;2023-04-29T02:41:00;96.47;;;53.60;;
23802;SDS011;12082;51.786;6.018;2023-04-29T02:43:26;97.53;;;52.27;;
23802;SDS011;12082;51.786;6.018;2023-04-29T02:45:54;89.07;;;53.20;;
23802;SDS011;12082;51.786;6.018;2023-04-29T02:48:20;96.03;;;54.90;;
23802;SDS011;12082;51.786;6.018;2023-04-29T02:50:46;94.80;;;53.57;;
23802;SDS011;12082;51.786;6.018;2023-04-29T02:53:11;92.77;;;51.90;;
23802;SDS011;12082;51.786;6.018;2023-04-29T02:55:37;90.83;;;53.40;;
23802;SDS011;12082;51.786;6.018;2023-04-29T02:58:02;100.90;;;55.97;;
23802;SDS011;12082;51.786;6.018;2023-04-29T03:00:28;88.33;;;52.30;;
23802;SDS011;12082;51.786;6.018;2023-04-29T03:02:53;90.67;;;51.83;;
23802;SDS011;12082;51.786;6.018;2023-04-29T03:05:19;90.20;;;51.47;;
23802;SDS011;12082;51.786;6.018;2023-04-29T03:07:44;87.60;;;50.13;;
23802;SDS011;12082;51.786;6.018;2023-04-29T03:10:10;85.67;;;50.43;;
23802;SDS011;12082;51.786;6.018;2023-04-29T03:12:36;88.40;;;51.53;;
23802;SDS011;12082;51.786;6.018;2023-04-29T03:15:03;85.13;;;50.57;;
23802;SDS011;12082;51.786;6.018;2023-04-29T03:17:30;74.53;;;45.50;;
23802;SDS011;12082;51.786;6.018;2023-04-29T03:19:56;85.83;;;49.47;;
23802;SDS011;12082;51.786;6.018;2023-04-29T03:22:22;82.93;;;48.70;;
23802;SDS011;12082;51.786;6.018;2023-04-29T03:24:47;81.30;;;48.03;;
23802;SDS011;12082;51.786;6.018;2023-04-29T03:27:13;75.50;;;47.23;;
23802;SDS011;12082;51.786;6.018;2023-04-29T03:29:38;76.63;;;47.60;;
23802;SDS011;12082;51.786;6.018;2023-04-29T03:32:08;85.27;;;48.40;;
23802;SDS011;12082;51.786;6.018;2023-04-29T03:34:34;85.23;;;47.60;;
23802;SDS011;12082;51.786;6.018;2023-04-29T03:36:59;74.47;;;44.73;;
23802;SDS011;12082;51.786;6.018;2023-04-29T03:39:25;78.67;;;47.97;;
23802;SDS011;12082;51.786;6.018;2023-04-29T03:41:55;74.80;;;46.13;;
23802;SDS011;12082;51.786;6.018;2023-04-29T03:44:21;65.37;;;44.27;;
23802;SDS011;12082;51.786;6.018;2023-04-29T03:46:46;82.83;;;48.90;;
23802;SDS011;12082;51.786;6.018;2023-04-29T03:49:12;76.33;;;48.40;;
23802;SDS011;12082;51.786;6.018;2023-04-29T03:51:38;74.93;;;49.33;;
23802;SDS011;12082;51.786;6.018;2023-04-29T03:54:03;76.50;;;50.27;;
23802;SDS011;12082;51.786;6.018;2023-04-29T03:56:29;71.70;;;47.90;;
23802;SDS011;12082;51.786;6.018;2023-04-29T03:58:55;76.60;;;52.60;;
23802;SDS011;12082;51.786;6.018;2023-04-29T04:01:20;82.97;;;51.87;;
23802;SDS011;12082;51.786;6.018;2023-04-29T04:03:46;73.03;;;51.30;;
23802;SDS011;12082;51.786;6.018;2023-04-29T04:06:12;73.83;;;50.93;;
23802;SDS011;12082;51.786;6.018;2023-04-29T04:08:37;69.93;;;54.23;;
23802;SDS011;12082;51.786;6.018;2023-04-29T04:11:05;75.90;;;53.10;;
23802;SDS011;12082;51.786;6.018;2023-04-29T04:13:30;76.53;;;53.70;;
23802;SDS011;12082;51.786;6.018;2023-04-29T04:15:56;78.73;;;53.53;;
23802;SDS011;12082;51.786;6.018;2023-04-29T04:18:22;73.30;;;55.00;;
23802;SDS011;12082;51.786;6.018;2023-04-29T04:20:48;79.07;;;58.77;;
23802;SDS011;12082;51.786;6.018;2023-04-29T04:23:14;83.93;;;55.90;;
23802;SDS011;12082;51.786;6.018;2023-04-29T04:25:46;75.77;;;55.80;;
23802;SDS011;12082;51.786;6.018;2023-04-29T04:28:12;70.83;;;55.63;;
23802;SDS011;12082;51.786;6.018;2023-04-29T04:30:38;74.87;;;54.47;;
23802;SDS011;12082;51.786;6.018;2023-04-29T04:33:04;76.17;;;54.47;;
23802;SDS011;12082;51.786;6.018;2023-04-29T04:35:30;70.37;;;53.80;;
23802;SDS011;12082;51.786;6.018;2023-04-29T04:37:55;75.73;;;53.97;;
23802;SDS011;12082;51.786;6.018;2023-04-29T04:40:21;74.70;;;56.30;;
23802;SDS011;12082;51.786;6.018;2023-04-29T04:42:47;74.00;;;57.70;;
23802;SDS011;12082;51.786;6.018;2023-04-29T04:45:12;75.37;;;59.13;;
23802;SDS011;12082;51.786;6.018;2023-04-29T04:47:39;75.80;;;55.17;;
23802;SDS011;12082;51.786;6.018;2023-04-29T04:50:05;76.47;;;58.50;;
23802;SDS011;12082;51.786;6.018;2023-04-29T04:52:32;78.97;;;56.80;;
23802;SDS011;12082;51.786;6.018;2023-04-29T04:54:57;77.17;;;64.00;;
23802;SDS011;12082;51.786;6.018;2023-04-29T04:57:23;76.77;;;64.50;;
23802;SDS011;12082;51.786;6.018;2023-04-29T04:59:48;77.23;;;64.00;;
23802;SDS011;12082;51.786;6.018;2023-04-29T05:02:14;81.77;;;66.27;;
23802;SDS011;12082;51.786;6.018;2023-04-29T05:04:40;74.23;;;65.67;;
23802;SDS011;12082;51.786;6.018;2023-04-29T05:07:05;78.43;;;65.97;;
23802;SDS011;12082;51.786;6.018;2023-04-29T05:09:31;75.50;;;66.40;;
23802;SDS011;12082;51.786;6.018;2023-04-29T05:11:57;71.53;;;63.77;;
23802;SDS011;12082;51.786;6.018;2023-04-29T05:14:23;73.70;;;65.77;;
23802;SDS011;12082;51.786;6.018;2023-04-29T05:16:49;71.53;;;63.77;;
23802;SDS011;12082;51.786;6.018;2023-04-29T05:19:16;77.17;;;63.80;;
23802;SDS011;12082;51.786;6.018;2023-04-29T05:21:42;73.80;;;63.87;;
23802;SDS011;12082;51.786;6.018;2023-04-29T05:24:08;75.43;;;64.60;;
23802;SDS011;12082;51.786;6.018;2023-04-29T05:26:34;73.77;;;64.13;;
23802;SDS011;12082;51.786;6.018;2023-04-29T05:29:00;70.60;;;63.10;;
23802;SDS011;12082;51.786;6.018;2023-04-29T05:31:25;71.40;;;61.87;;
23802;SDS011;12082;51.786;6.018;2023-04-29T05:33:52;69.07;;;61.60;;
23802;SDS011;12082;51.786;6.018;2023-04-29T05:36:17;69.80;;;62.13;;
23802;SDS011;12082;51.786;6.018;2023-04-29T05:38:43;71.13;;;63.63;;
23802;SDS011;12082;51.786;6.018;2023-04-29T05:41:09;76.07;;;65.47;;
23802;SDS011;12082;51.786;6.018;2023-04-29T05:43:35;69.67;;;62.17;;
23802;SDS011;12082;51.786;6.018;2023-04-29T05:46:00;71.00;;;63.60;;
23802;SDS011;12082;51.786;6.018;2023-04-29T05:48:26;68.37;;;61.33;;
23802;SDS011;12082;51.786;6.018;2023-04-29T05:50:53;68.07;;;60.77;;
23802;SDS011;12082;51.786;6.018;2023-04-29T05:53:18;65.57;;;59.00;;
23802;SDS011;12082;51.786;6.018;2023-04-29T05:55:44;56.63;;;49.60;;
23802;SDS011;12082;51.786;6.018;2023-04-29T05:58:10;62.47;;;51.77;;
23802;SDS011;12082;51.786;6.018;2023-04-29T06:00:37;59.13;;;53.10;;
23802;SDS011;12082;51.786;6.018;2023-04-29T06:03:03;61.37;;;55.47;;
23802;SDS011;12082;51.786;6.018;2023-04-29T06:05:28;62.03;;;55.87;;
23802;SDS011;12082;51.786;6.018;2023-04-29T06:07:54;59.73;;;53.47;;
23802;SDS011;12082;51.786;6.018;2023-04-29T06:10:20;59.50;;;53.57;;
23802;SDS011;12082;51.786;6.018;2023-04-29T06:12:45;59.90;;;53.80;;
23802;SDS011;12082;51.786;6.018;2023-04-29T06:15:14;61.57;;;55.57;;
23802;SDS011;12082;51.786;6.018;2023-04-29T06:17:40;61.13;;;54.93;;
23802;SDS011;12082;51.786;6.018;2023-04-29T06:20:06;61.93;;;55.73;;
23802;SDS011;12082;51.786;6.018;2023-04-29T06:22:32;62.83;;;56.57;;
23802;SDS011;12082;51.786;6.018;2023-04-29T06:24:57;64.90;;;58.73;;
23802;SDS011;12082;51.786;6.018;2023-04-29T06:27:23;63.90;;;57.83;;
23802;SDS011;12082;51.786;6.018;2023-04-29T06:29:49;62.47;;;56.87;;
23802;SDS011;12082;51.786;6.018;2023-04-29T06:32:14;61.03;;;54.77;;
23802;SDS011;12082;51.786;6.018;2023-04-29T06:34:40;54.93;;;49.73;;
23802;SDS011;12082;51.786;6.018;2023-04-29T06:37:05;51.93;;;44.77;;
23802;SDS011;12082;51.786;6.018;2023-04-29T06:39:31;49.40;;;44.27;;
23802;SDS011;12082;51.786;6.018;2023-04-29T06:41:56;46.13;;;41.03;;
23802;SDS011;12082;51.786;6.018;2023-04-29T06:44:22;47.27;;;42.43;;
23802;SDS011;12082;51.786;6.018;2023-04-29T06:46:48;48.00;;;42.73;;
23802;SDS011;12082;51.786;6.018;2023-04-29T06:49:14;48.50;;;43.47;;
23802;SDS011;12082;51.786;6.018;2023-04-29T06:51:40;48.87;;;43.67;;
23802;SDS011;12082;51.786;6.018;2023-04-29T06:54:06;48.10;;;43.53;;
23802;SDS011;12082;51.786;6.018;2023-04-29T06:56:32;49.83;;;44.83;;
23802;SDS011;12082;51.786;6.018;2023-04-29T06:58:58;45.83;;;41.00;;
23802;SDS011;12082;51.786;6.018;2023-04-29T07:01:23;47.57;;;42.67;;
23802;SDS011;12082;51.786;6.018;2023-04-29T07:03:49;44.30;;;39.87;;
23802;SDS011;12082;51.786;6.018;2023-04-29T07:06:14;45.30;;;39.63;;
23802;SDS011;12082;51.786;6.018;2023-04-29T07:08:40;45.77;;;41.00;;
23802;SDS011;12082;51.786;6.018;2023-04-29T07:11:05;46.50;;;41.73;;
23802;SDS011;12082;51.786;6.018;2023-04-29T07:13:31;45.90;;;41.67;;
23802;SDS011;12082;51.786;6.018;2023-04-29T07:15:56;45.00;;;41.00;;
23802;SDS011;12082;51.786;6.018;2023-04-29T07:18:22;45.37;;;40.63;;
23802;SDS011;12082;51.786;6.018;2023-04-29T07:20:47;45.47;;;40.60;;
23802;SDS011;12082;51.786;6.018;2023-04-29T07:23:15;44.90;;;40.30;;
23802;SDS011;12082;51.786;6.018;2023-04-29T07:25:40;44.07;;;39.83;;
23802;SDS011;12082;51.786;6.018;2023-04-29T07:28:06;45.03;;;40.37;;
23802;SDS011;12082;51.786;6.018;2023-04-29T07:30:33;46.37;;;42.07;;
23802;SDS011;12082;51.786;6.018;2023-04-29T07:32:58;47.43;;;42.87;;
23802;SDS011;12082;51.786;6.018;2023-04-29T07:35:24;47.60;;;43.40;;
23802;SDS011;12082;51.786;6.018;2023-04-29T07:37:50;50.53;;;43.73;;
23802;SDS011;12082;51.786;6.018;2023-04-29T07:40:15;46.47;;;42.13;;
23802;SDS011;12082;51.786;6.018;2023-04-29T07:42:41;46.13;;;41.70;;
23802;SDS011;12082;51.786;6.018;2023-04-29T07:45:07;41.03;;;37.13;;
23802;SDS011;12082;51.786;6.018;2023-04-29T07:47:33;41.43;;;37.10;;
23802;SDS011;12082;51.786;6.018;2023-04-29T07:49:59;42.43;;;38.03;;
23802;SDS011;12082;51.786;6.018;2023-04-29T07:52:25;42.10;;;37.80;;
23802;SDS011;12082;51.786;6.018;2023-04-29T07:54:50;41.87;;;37.47;;
23802;SDS011;12082;51.786;6.018;2023-04-29T07:57:16;43.97;;;38.93;;
23802;SDS011;12082;51.786;6.018;2023-04-29T07:59:42;40.77;;;36.97;;
23802;SDS011;12082;51.786;6.018;2023-04-29T08:02:07;40.83;;;36.83;;
23802;SDS011;12082;51.786;6.018;2023-04-29T08:04:33;42.77;;;38.43;;
23802;SDS011;12082;51.786;6.018;2023-04-29T08:06:58;41.87;;;37.87;;
23802;SDS011;12082;51.786;6.018;2023-04-29T08:09:24;41.00;;;37.20;;
23802;SDS011;12082;51.786;6.018;2023-04-29T08:11:49;40.63;;;36.67;;
23802;SDS011;12082;51.786;6.018;2023-04-29T08:14:15;40.13;;;36.40;;
23802;SDS011;12082;51.786;6.018;2023-04-29T08:16:40;39.63;;;35.67;;
23802;SDS011;12082;51.786;6.018;2023-04-29T08:19:06;37.90;;;33.97;;
23802;SDS011;12082;51.786;6.018;2023-04-29T08:21:31;40.10;;;36.07;;
23802;SDS011;12082;51.786;6.018;2023-04-29T08:23:58;39.67;;;36.03;;
23802;SDS011;12082;51.786;6.018;2023-04-29T08:26:23;37.77;;;34.43;;
23802;SDS011;12082;51.786;6.018;2023-04-29T08:28:49;37.93;;;34.63;;
23802;SDS011;12082;51.786;6.018;2023-04-29T08:31:18;37.43;;;34.00;;
23802;SDS011;12082;51.786;6.018;2023-04-29T08:33:44;36.23;;;32.93;;
23802;SDS011;12082;51.786;6.018;2023-04-29T08:36:10;37.30;;;33.73;;
23802;SDS011;12082;51.786;6.018;2023-04-29T08:38:36;36.73;;;33.17;;
23802;SDS011;12082;51.786;6.018;2023-04-29T08:41:01;36.80;;;32.87;;
23802;SDS011;12082;51.786;6.018;2023-04-29T08:43:27;34.30;;;31.50;;
23802;SDS011;12082;51.786;6.018;2023-04-29T08:45:53;32.63;;;29.50;;
23802;SDS011;12082;51.786;6.018;2023-04-29T08:48:21;33.97;;;30.53;;
23802;SDS011;12082;51.786;6.018;2023-04-29T08:50:47;35.00;;;31.60;;
23802;SDS011;12082;51.786;6.018;2023-04-29T08:53:13;32.73;;;29.60;;
23802;SDS011;12082;51.786;6.018;2023-04-29T08:55:42;31.27;;;28.60;;
23802;SDS011;12082;51.786;6.018;2023-04-29T08:58:09;30.30;;;27.80;;
23802;SDS011;12082;51.786;6.018;2023-04-29T09:00:36;29.63;;;27.13;;
23802;SDS011;12082;51.786;6.018;2023-04-29T09:03:05;31.43;;;28.43;;
23802;SDS011;12082;51.786;6.018;2023-04-29T09:05:41;29.80;;;27.20;;
23802;SDS011;12082;51.786;6.018;2023-04-29T09:08:08;31.97;;;29.07;;
23802;SDS011;12082;51.786;6.018;2023-04-29T09:10:36;29.50;;;26.97;;
23802;SDS011;12082;51.786;6.018;2023-04-29T09:13:03;30.37;;;27.77;;
23802;SDS011;12082;51.786;6.018;2023-04-29T09:15:33;30.17;;;27.33;;
23802;SDS011;12082;51.786;6.018;2023-04-29T09:18:00;31.60;;;28.70;;
23802;SDS011;12082;51.786;6.018;2023-04-29T09:20:26;32.33;;;29.40;;
23802;SDS011;12082;51.786;6.018;2023-04-29T09:22:56;30.93;;;27.70;;
23802;SDS011;12082;51.786;6.018;2023-04-29T09:25:26;32.77;;;30.13;;
23802;SDS011;12082;51.786;6.018;2023-04-29T09:27:52;33.57;;;30.63;;
23802;SDS011;12082;51.786;6.018;2023-04-29T09:30:20;32.07;;;28.97;;
23802;SDS011;12082;51.786;6.018;2023-04-29T09:33:03;30.17;;;27.67;;
23802;SDS011;12082;51.786;6.018;2023-04-29T09:35:32;31.70;;;28.70;;
23802;SDS011;12082;51.786;6.018;2023-04-29T09:38:11;31.27;;;28.27;;
23802;SDS011;12082;51.786;6.018;2023-04-29T09:40:38;31.07;;;28.37;;
23802;SDS011;12082;51.786;6.018;2023-04-29T09:43:10;30.10;;;27.43;;
23802;SDS011;12082;51.786;6.018;2023-04-29T09:45:39;31.20;;;28.53;;
23802;SDS011;12082;51.786;6.018;2023-04-29T09:48:14;28.97;;;26.67;;
23802;SDS011;12082;51.786;6.018;2023-04-29T09:50:40;31.93;;;29.20;;
23802;SDS011;12082;51.786;6.018;2023-04-29T09:53:09;30.13;;;26.90;;
23802;SDS011;12082;51.786;6.018;2023-04-29T09:55:35;30.00;;;27.67;;
23802;SDS011;12082;51.786;6.018;2023-04-29T10:00:58;32.80;;;29.93;;
23802;SDS011;12082;51.786;6.018;2023-04-29T10:03:32;28.20;;;25.70;;
23802;SDS011;12082;51.786;6.018;2023-04-29T10:05:59;28.00;;;25.77;;
23802;SDS011;12082;51.786;6.018;2023-04-29T10:08:27;29.23;;;25.43;;
23802;SDS011;12082;51.786;6.018;2023-04-29T10:10:58;27.80;;;25.50;;
23802;SDS011;12082;51.786;6.018;2023-04-29T10:13:25;27.80;;;25.50;;
23802;SDS011;12082;51.786;6.018;2023-04-29T10:16:14;29.20;;;26.37;;
23802;SDS011;12082;51.786;6.018;2023-04-29T10:18:52;27.17;;;24.87;;
23802;SDS011;12082;51.786;6.018;2023-04-29T10:21:20;26.13;;;23.97;;
23802;SDS011;12082;51.786;6.018;2023-04-29T10:23:51;27.63;;;25.03;;
23802;SDS011;12082;51.786;6.018;2023-04-29T10:26:18;25.70;;;23.00;;
23802;SDS011;12082;51.786;6.018;2023-04-29T10:28:44;27.43;;;24.53;;
23802;SDS011;12082;51.786;6.018;2023-04-29T10:31:15;27.47;;;25.07;;
23802;SDS011;12082;51.786;6.018;2023-04-29T10:33:42;26.80;;;24.37;;
23802;SDS011;12082;51.786;6.018;2023-04-29T10:36:10;25.17;;;22.87;;
23802;SDS011;12082;51.786;6.018;2023-04-29T10:38:37;24.80;;;22.50;;
23802;SDS011;12082;51.786;6.018;2023-04-29T10:41:21;25.17;;;23.00;;
23802;SDS011;12082;51.786;6.018;2023-04-29T10:43:51;24.53;;;22.33;;
23802;SDS011;12082;51.786;6.018;2023-04-29T10:46:24;27.50;;;24.63;;
23802;SDS011;12082;51.786;6.018;2023-04-29T10:48:59;32.90;;;30.17;;
23802;SDS011;12082;51.786;6.018;2023-04-29T10:51:27;31.50;;;28.97;;
23802;SDS011;12082;51.786;6.018;2023-04-29T10:56:41;32.23;;;29.17;;
23802;SDS011;12082;51.786;6.018;2023-04-29T10:59:11;28.13;;;25.67;;
23802;SDS011;12082;51.786;6.018;2023-04-29T11:04:10;29.20;;;26.97;;
23802;SDS011;12082;51.786;6.018;2023-04-29T11:14:40;29.07;;;26.87;;
23802;SDS011;12082;51.786;6.018;2023-04-29T11:17:08;27.63;;;25.53;;
23802;SDS011;12082;51.786;6.018;2023-04-29T11:19:36;27.43;;;25.03;;
23802;SDS011;12082;51.786;6.018;2023-04-29T11:24:50;26.70;;;24.60;;
23802;SDS011;12082;51.786;6.018;2023-04-29T11:27:21;25.70;;;23.50;;
23802;SDS011;12082;51.786;6.018;2023-04-29T11:29:49;23.57;;;21.63;;
23802;SDS011;12082;51.786;6.018;2023-04-29T11:32:19;25.73;;;23.73;;
23802;SDS011;12082;51.786;6.018;2023-04-29T11:34:46;26.33;;;23.97;;
23802;SDS011;12082;51.786;6.018;2023-04-29T11:37:11;24.87;;;22.97;;
23802;SDS011;12082;51.786;6.018;2023-04-29T11:39:37;26.27;;;24.23;;
23802;SDS011;12082;51.786;6.018;2023-04-29T11:42:03;27.80;;;25.77;;
23802;SDS011;12082;51.786;6.018;2023-04-29T11:44:32;27.17;;;25.03;;
23802;SDS011;12082;51.786;6.018;2023-04-29T11:47:03;26.93;;;25.03;;
23802;SDS011;12082;51.786;6.018;2023-04-29T11:49:33;25.43;;;23.43;;
23802;SDS011;12082;51.786;6.018;2023-04-29T11:51:59;23.67;;;21.97;;
23802;SDS011;12082;51.786;6.018;2023-04-29T11:54:28;22.77;;;21.00;;
23802;SDS011;12082;51.786;6.018;2023-04-29T11:56:55;22.27;;;20.57;;
23802;SDS011;12082;51.786;6.018;2023-04-29T11:59:22;21.23;;;19.67;;
23802;SDS011;12082;51.786;6.018;2023-04-29T12:01:48;22.17;;;20.47;;
23802;SDS011;12082;51.786;6.018;2023-04-29T12:04:14;24.30;;;22.50;;
23802;SDS011;12082;51.786;6.018;2023-04-29T12:06:40;24.60;;;22.70;;
23802;SDS011;12082;51.786;6.018;2023-04-29T12:09:06;24.07;;;22.47;;
23802;SDS011;12082;51.786;6.018;2023-04-29T12:11:32;20.70;;;19.00;;
23802;SDS011;12082;51.786;6.018;2023-04-29T12:13:59;21.57;;;19.87;;
23802;SDS011;12082;51.786;6.018;2023-04-29T12:16:26;21.70;;;20.10;;
23802;SDS011;12082;51.786;6.018;2023-04-29T12:18:53;21.83;;;20.03;;
23802;SDS011;12082;51.786;6.018;2023-04-29T12:21:20;19.47;;;17.73;;
23802;SDS011;12082;51.786;6.018;2023-04-29T12:23:46;19.63;;;17.83;;
23802;SDS011;12082;51.786;6.018;2023-04-29T12:26:12;19.17;;;17.73;;
23802;SDS011;12082;51.786;6.018;2023-04-29T12:28:39;19.13;;;17.43;;
23802;SDS011;12082;51.786;6.018;2023-04-29T12:31:07;18.10;;;16.60;;
23802;SDS011;12082;51.786;6.018;2023-04-29T12:33:35;19.17;;;17.57;;
23802;SDS011;12082;51.786;6.018;2023-04-29T12:36:00;18.50;;;17.00;;
23802;SDS011;12082;51.786;6.018;2023-04-29T12:38:27;20.20;;;18.60;;
23802;SDS011;12082;51.786;6.018;2023-04-29T12:40:59;18.73;;;16.80;;
23802;SDS011;12082;51.786;6.018;2023-04-29T12:43:26;18.17;;;16.73;;
23802;SDS011;12082;51.786;6.018;2023-04-29T12:46:06;18.17;;;16.60;;
23802;SDS011;12082;51.786;6.018;2023-04-29T12:48:32;17.53;;;16.23;;
23802;SDS011;12082;51.786;6.018;2023-04-29T12:51:01;17.53;;;16.27;;
23802;SDS011;12082;51.786;6.018;2023-04-29T12:53:28;19.00;;;17.53;;
23802;SDS011;12082;51.786;6.018;2023-04-29T12:55:54;18.80;;;17.43;;
23802;SDS011;12082;51.786;6.018;2023-04-29T12:58:20;18.13;;;16.67;;
23802;SDS011;12082;51.786;6.018;2023-04-29T13:00:46;15.57;;;13.97;;
23802;SDS011;12082;51.786;6.018;2023-04-29T13:03:12;16.70;;;15.40;;
23802;SDS011;12082;51.786;6.018;2023-04-29T13:05:38;17.20;;;15.90;;
23802;SDS011;12082;51.786;6.018;2023-04-29T13:08:04;15.53;;;14.43;;
23802;SDS011;12082;51.786;6.018;2023-04-29T13:10:30;16.63;;;15.53;;
23802;SDS011;12082;51.786;6.018;2023-04-29T13:12:57;15.60;;;14.30;;
23802;SDS011;12082;51.786;6.018;2023-04-29T13:15:22;15.17;;;13.97;;
23802;SDS011;12082;51.786;6.018;2023-04-29T13:17:48;13.40;;;12.40;;
23802;SDS011;12082;51.786;6.018;2023-04-29T13:20:13;11.83;;;11.03;;
23802;SDS011;12082;51.786;6.018;2023-04-29T13:22:39;12.67;;;10.90;;
23802;SDS011;12082;51.786;6.018;2023-04-29T13:25:07;10.87;;;9.93;;
23802;SDS011;12082;51.786;6.018;2023-04-29T13:27:34;11.67;;;10.83;;
23802;SDS011;12082;51.786;6.018;2023-04-29T13:30:00;10.27;;;9.33;;
23802;SDS011;12082;51.786;6.018;2023-04-29T13:32:26;10.97;;;9.90;;
23802;SDS011;12082;51.786;6.018;2023-04-29T13:34:51;11.43;;;10.40;;
23802;SDS011;12082;51.786;6.018;2023-04-29T13:37:17;11.00;;;10.10;;
23802;SDS011;12082;51.786;6.018;2023-04-29T13:39:44;23.67;;;22.00;;
23802;SDS011;12082;51.786;6.018;2023-04-29T13:42:09;11.77;;;10.87;;
23802;SDS011;12082;51.786;6.018;2023-04-29T13:44:35;11.47;;;10.40;;
23802;SDS011;12082;51.786;6.018;2023-04-29T13:47:01;12.07;;;11.03;;
23802;SDS011;12082;51.786;6.018;2023-04-29T13:49:28;12.53;;;11.40;;
23802;SDS011;12082;51.786;6.018;2023-04-29T13:51:53;12.00;;;11.10;;
23802;SDS011;12082;51.786;6.018;2023-04-29T13:54:19;13.63;;;12.53;;
23802;SDS011;12082;51.786;6.018;2023-04-29T13:56:45;13.27;;;12.27;;
23802;SDS011;12082;51.786;6.018;2023-04-29T13:59:11;13.40;;;12.30;;
23802;SDS011;12082;51.786;6.018;2023-04-29T14:01:37;15.60;;;14.30;;
23802;SDS011;12082;51.786;6.018;2023-04-29T14:04:03;15.50;;;14.33;;
23802;SDS011;12082;51.786;6.018;2023-04-29T14:06:28;15.63;;;14.60;;
23802;SDS011;12082;51.786;6.018;2023-04-29T14:08:56;15.03;;;14.23;;
23802;SDS011;12082;51.786;6.018;2023-04-29T14:11:22;16.27;;;15.17;;
23802;SDS011;12082;51.786;6.018;2023-04-29T14:13:48;17.70;;;16.17;;
23802;SDS011;12082;51.786;6.018;2023-04-29T14:16:13;17.40;;;16.10;;
23802;SDS011;12082;51.786;6.018;2023-04-29T14:18:39;16.57;;;15.50;;
23802;SDS011;12082;51.786;6.018;2023-04-29T14:21:05;15.90;;;14.90;;
23802;SDS011;12082;51.786;6.018;2023-04-29T14:23:30;15.50;;;13.93;;
23802;SDS011;12082;51.786;6.018;2023-04-29T14:25:56;14.90;;;13.77;;
23802;SDS011;12082;51.786;6.018;2023-04-29T14:28:21;15.00;;;13.80;;
23802;SDS011;12082;51.786;6.018;2023-04-29T14:30:47;14.50;;;13.40;;
23802;SDS011;12082;51.786;6.018;2023-04-29T14:33:12;14.30;;;13.30;;
23802;SDS011;12082;51.786;6.018;2023-04-29T14:35:38;15.57;;;14.40;;
23802;SDS011;12082;51.786;6.018;2023-04-29T14:38:03;15.50;;;14.23;;
23802;SDS011;12082;51.786;6.018;2023-04-29T14:40:29;14.07;;;13.07;;
23802;SDS011;12082;51.786;6.018;2023-04-29T14:42:55;14.53;;;13.53;;
23802;SDS011;12082;51.786;6.018;2023-04-29T14:45:20;15.23;;;14.00;;
23802;SDS011;12082;51.786;6.018;2023-04-29T14:47:46;14.67;;;13.70;;
23802;SDS011;12082;51.786;6.018;2023-04-29T14:50:12;12.77;;;11.73;;